Jefferson City, MO (65101)

4:56 AM CST on February 21, 2017 (GMT -0600)
SW Blvd/Stadium Blvd | | Change Station

Elev 745 ft 38.57 °N, 92.20 °W | Updated 12 seconds ago

Rain
Rain
56.5 °F
Feels Like 56.5 °F
N
0.0
Wind Variable Wind from ENE

Today
High -- | Low -- °F
--% Chance of Precip.
Yesterday
High -- | Low -- °F
Precip. -- in
Pressure 29.88 in
Visibility 0.5 miles
Clouds Mostly Cloudy 200 ft
Overcast 9500 ft
Dew Point 56 °F
Humidity 98%
Rainfall 0.02 in
Snow Depth Not available.
6:51 AM 5:53 PM
Waning Crescent, 26% visible
METAR KJEF 211053Z AUTO 32003KT 1/2SM -RA FG BKN002 OVC095 13/13 A2992 RMK AO2 RAB53 SLP119 P0000 T01330133
Pressure 29.88 in
Visibility 0.5 miles
Clouds Mostly Cloudy 200 ft
Overcast 9500 ft
Dew Point 56 °F
Humidity 98%
Rainfall 0.02 in
Snow Depth Not available.
6:51 AM 5:53 PM
Waning Crescent, 26% visible
METAR KJEF 211053Z AUTO 32003KT 1/2SM -RA FG BKN002 OVC095 13/13 A2992 RMK AO2 RAB53 SLP119 P0000 T01330133

Get Your Daily Forecast Email!

Thanks for signing up!

Be on the lookout for a verification email in your inbox.

You'll start receiving the daily forecast at 8 AM.

×

10-Day Weather Forecast

Almanac

Astronomy

Feb. 21, 2017 Rise Set
Actual Time
Civil Twilight
Nautical Twilight
Astronomical Twilight
Moon
Length of Visible Light
Length of Day
Tomorrow will be .
, % of the Moon is Illuminated

Today's Extremes

State Highs State Lows

Community

WunderPhotos

Upload Photos

1,962,540 photos uploaded!

WunderBlog® & News

Nearby

Air Quality

  Air Quality AQ Index Pollutant
Not available.

Snow Depth

Station Depth Elevation

Earthquake Activity

City Distance Mag. Time & Date
Minimum magnitude displayed is 2.5.

Coastal Water Temperatures

Place Temperature

Stations

Nearby Weather Stations

Station Location Temp. Windchill Dew Point Humidity Wind Precip. Elev Updated Type
                   

Watches & Warnings

There are currently no watches in effect.